Observations

83.5 °F / 28.6 °C
ENE at 12 MPH gusting to 17 MPH
79%
76.6°F / 24.8 °C
29.94" (1013 mb)
10 mile(s)
partly cloudy
2024.07.19 1200 UTC

Observations

Surface


Raw METARs

2024/07/19 12:00
PKWA 191200Z AUTO 06010G15KT 10SM SCT020 29/25 A2994 RMK AO2 T02860248

Translated METAR

Kwajalein, Bucholz AAF, Kwajalein KMR ATOL Airport, Marshall Islands (PKWA) 08-43N 167-44E 2M
Jul 19, 2024 - 08:00 AM EDT / 2024.07.19 1200 UTC
Wind: from the ENE (060 degrees) at 12 MPH (10 KT) gusting to 17 MPH (15 KT):0
Visibility: 10 mile(s):0
Sky conditions: partly cloudy
Temperature: 83.5 F (28.6 C)
Dew Point: 76.6 F (24.8 C)
Relative Humidity: 79%
Pressure (altimeter): 29.94 in. Hg (1013 hPa)
ob: PKWA 191200Z AUTO 06010G15KT 10SM SCT020 29/25 A2994 RMK AO2 T02860248
cycle: 12



Upper Air


Latest Skew-T

Skew T Diagram

Latest Data File